Tessenderlo, Belgium
Current Conditions -  °F | °C
As of 7:54 AM on Friday 31 Oct 2014 (Local Time) from EBDT Reporting Station
Broken Clouds Broken Clouds  
Wind Chill: 52°   Ceiling: 23000
Heat Index: 52°   Visibility: 6mi
Dew Point: 50°   Wind: 7mph
Humidity: 94%   Direction: 170°S
Pressure: 30.18"   Gusts: NA
Location:  51.07°N, 5.09°E
Report Text: EBDT 310654Z 17006KT 9999 FEW100 BKN230 11/10 Q1022 BLU BLU
Loading
Personal Weather Stations






























Interactive Weather Map New forecast layout! Learn more

10-Day Weather Forecast

Advertisements
Track Severe Weather on mobile